sensor_id;sensor_type;location;lat;lon;timestamp;P1;durP1;ratioP1;P2;durP2;ratioP2
39918;SDS011;25589;51.552;13.424;2022-08-21T00:00:06;29.92;;;22.20;;
39918;SDS011;25589;51.552;13.424;2022-08-21T00:02:37;31.83;;;22.25;;
39918;SDS011;25589;51.552;13.424;2022-08-21T00:05:08;30.98;;;21.33;;
39918;SDS011;25589;51.552;13.424;2022-08-21T00:07:34;28.20;;;21.00;;
39918;SDS011;25589;51.552;13.424;2022-08-21T00:09:59;28.02;;;21.15;;
39918;SDS011;25589;51.552;13.424;2022-08-21T00:12:25;27.95;;;20.55;;
39918;SDS011;25589;51.552;13.424;2022-08-21T00:14:51;27.00;;;20.33;;
39918;SDS011;25589;51.552;13.424;2022-08-21T00:17:16;26.83;;;20.23;;
39918;SDS011;25589;51.552;13.424;2022-08-21T00:19:42;30.10;;;21.83;;
39918;SDS011;25589;51.552;13.424;2022-08-21T00:22:07;30.23;;;21.08;;
39918;SDS011;25589;51.552;13.424;2022-08-21T00:24:33;30.98;;;22.33;;
39918;SDS011;25589;51.552;13.424;2022-08-21T00:26:59;26.17;;;19.60;;
39918;SDS011;25589;51.552;13.424;2022-08-21T00:29:25;28.70;;;19.77;;
39918;SDS011;25589;51.552;13.424;2022-08-21T00:31:50;25.45;;;18.80;;
39918;SDS011;25589;51.552;13.424;2022-08-21T00:34:16;28.58;;;21.17;;
39918;SDS011;25589;51.552;13.424;2022-08-21T00:36:41;29.33;;;20.80;;
39918;SDS011;25589;51.552;13.424;2022-08-21T00:39:07;26.08;;;19.65;;
39918;SDS011;25589;51.552;13.424;2022-08-21T00:41:34;25.98;;;20.48;;
39918;SDS011;25589;51.552;13.424;2022-08-21T00:44:02;26.92;;;20.15;;
39918;SDS011;25589;51.552;13.424;2022-08-21T00:46:29;27.75;;;20.52;;
39918;SDS011;25589;51.552;13.424;2022-08-21T00:48:55;25.83;;;19.67;;
39918;SDS011;25589;51.552;13.424;2022-08-21T00:51:23;24.58;;;18.90;;
39918;SDS011;25589;51.552;13.424;2022-08-21T00:53:57;27.05;;;20.23;;
39918;SDS011;25589;51.552;13.424;2022-08-21T00:56:26;29.05;;;20.45;;
39918;SDS011;25589;51.552;13.424;2022-08-21T00:58:53;29.65;;;20.25;;
39918;SDS011;25589;51.552;13.424;2022-08-21T01:01:21;27.35;;;19.73;;
39918;SDS011;25589;51.552;13.424;2022-08-21T01:03:47;26.23;;;18.40;;
39918;SDS011;25589;51.552;13.424;2022-08-21T01:06:13;23.83;;;18.65;;
39918;SDS011;25589;51.552;13.424;2022-08-21T01:08:39;25.38;;;18.40;;
39918;SDS011;25589;51.552;13.424;2022-08-21T01:11:04;24.33;;;18.45;;
39918;SDS011;25589;51.552;13.424;2022-08-21T01:13:32;25.83;;;18.65;;
39918;SDS011;25589;51.552;13.424;2022-08-21T01:16:01;24.20;;;18.13;;
39918;SDS011;25589;51.552;13.424;2022-08-21T01:18:29;24.60;;;17.33;;
39918;SDS011;25589;51.552;13.424;2022-08-21T01:21:05;23.50;;;16.35;;
39918;SDS011;25589;51.552;13.424;2022-08-21T01:23:34;20.27;;;15.55;;
39918;SDS011;25589;51.552;13.424;2022-08-21T01:26:01;20.60;;;16.25;;
39918;SDS011;25589;51.552;13.424;2022-08-21T01:28:27;24.80;;;16.73;;
39918;SDS011;25589;51.552;13.424;2022-08-21T01:30:57;18.50;;;15.10;;
39918;SDS011;25589;51.552;13.424;2022-08-21T01:33:24;23.92;;;17.92;;
39918;SDS011;25589;51.552;13.424;2022-08-21T01:35:50;19.13;;;15.77;;
39918;SDS011;25589;51.552;13.424;2022-08-21T01:38:16;21.20;;;14.80;;
39918;SDS011;25589;51.552;13.424;2022-08-21T01:40:42;19.80;;;16.05;;
39918;SDS011;25589;51.552;13.424;2022-08-21T01:43:08;19.95;;;15.45;;
39918;SDS011;25589;51.552;13.424;2022-08-21T01:45:33;19.17;;;15.65;;
39918;SDS011;25589;51.552;13.424;2022-08-21T01:47:59;22.17;;;15.45;;
39918;SDS011;25589;51.552;13.424;2022-08-21T01:50:24;17.88;;;14.60;;
39918;SDS011;25589;51.552;13.424;2022-08-21T01:52:50;18.10;;;13.30;;
39918;SDS011;25589;51.552;13.424;2022-08-21T01:55:17;17.10;;;13.05;;
39918;SDS011;25589;51.552;13.424;2022-08-21T01:57:44;18.27;;;13.40;;
39918;SDS011;25589;51.552;13.424;2022-08-21T02:00:12;15.18;;;12.35;;
39918;SDS011;25589;51.552;13.424;2022-08-21T02:02:38;13.95;;;11.63;;
39918;SDS011;25589;51.552;13.424;2022-08-21T02:05:05;15.38;;;11.90;;
39918;SDS011;25589;51.552;13.424;2022-08-21T02:07:36;15.57;;;11.57;;
39918;SDS011;25589;51.552;13.424;2022-08-21T02:10:04;17.35;;;11.85;;
39918;SDS011;25589;51.552;13.424;2022-08-21T02:12:31;13.95;;;11.63;;
39918;SDS011;25589;51.552;13.424;2022-08-21T02:14:57;14.88;;;11.50;;
39918;SDS011;25589;51.552;13.424;2022-08-21T02:17:23;14.60;;;11.00;;
39918;SDS011;25589;51.552;13.424;2022-08-21T02:19:49;13.40;;;11.07;;
39918;SDS011;25589;51.552;13.424;2022-08-21T02:22:14;13.02;;;11.18;;
39918;SDS011;25589;51.552;13.424;2022-08-21T02:24:40;13.63;;;10.27;;
39918;SDS011;25589;51.552;13.424;2022-08-21T02:27:05;15.43;;;11.32;;
39918;SDS011;25589;51.552;13.424;2022-08-21T02:29:31;13.68;;;10.95;;
39918;SDS011;25589;51.552;13.424;2022-08-21T02:31:56;14.23;;;10.70;;
39918;SDS011;25589;51.552;13.424;2022-08-21T02:34:22;15.73;;;10.27;;
39918;SDS011;25589;51.552;13.424;2022-08-21T02:36:48;13.60;;;10.40;;
39918;SDS011;25589;51.552;13.424;2022-08-21T02:39:14;11.48;;;10.13;;
39918;SDS011;25589;51.552;13.424;2022-08-21T02:41:39;14.73;;;11.20;;
39918;SDS011;25589;51.552;13.424;2022-08-21T02:44:05;14.07;;;10.48;;
39918;SDS011;25589;51.552;13.424;2022-08-21T02:46:30;12.85;;;9.57;;
39918;SDS011;25589;51.552;13.424;2022-08-21T02:48:56;13.10;;;10.52;;
39918;SDS011;25589;51.552;13.424;2022-08-21T02:51:22;13.77;;;10.43;;
39918;SDS011;25589;51.552;13.424;2022-08-21T02:53:50;13.75;;;9.50;;
39918;SDS011;25589;51.552;13.424;2022-08-21T02:56:18;11.10;;;10.00;;
39918;SDS011;25589;51.552;13.424;2022-08-21T02:58:47;11.02;;;9.80;;
39918;SDS011;25589;51.552;13.424;2022-08-21T03:01:15;10.43;;;8.75;;
39918;SDS011;25589;51.552;13.424;2022-08-21T03:03:43;15.10;;;9.98;;
39918;SDS011;25589;51.552;13.424;2022-08-21T03:06:10;10.40;;;9.30;;
39918;SDS011;25589;51.552;13.424;2022-08-21T03:08:38;16.20;;;9.85;;
39918;SDS011;25589;51.552;13.424;2022-08-21T03:11:04;13.40;;;10.10;;
39918;SDS011;25589;51.552;13.424;2022-08-21T03:13:30;11.30;;;9.48;;
39918;SDS011;25589;51.552;13.424;2022-08-21T03:15:57;14.93;;;10.18;;
39918;SDS011;25589;51.552;13.424;2022-08-21T03:18:22;12.45;;;10.10;;
39918;SDS011;25589;51.552;13.424;2022-08-21T03:20:48;12.15;;;9.48;;
39918;SDS011;25589;51.552;13.424;2022-08-21T03:23:14;11.65;;;10.27;;
39918;SDS011;25589;51.552;13.424;2022-08-21T03:25:42;12.50;;;10.05;;
39918;SDS011;25589;51.552;13.424;2022-08-21T03:28:09;11.90;;;9.85;;
39918;SDS011;25589;51.552;13.424;2022-08-21T03:30:42;14.70;;;10.43;;
39918;SDS011;25589;51.552;13.424;2022-08-21T03:33:09;15.30;;;10.32;;
39918;SDS011;25589;51.552;13.424;2022-08-21T03:35:35;11.95;;;10.13;;
39918;SDS011;25589;51.552;13.424;2022-08-21T03:38:01;13.05;;;10.00;;
39918;SDS011;25589;51.552;13.424;2022-08-21T03:40:27;12.85;;;9.80;;
39918;SDS011;25589;51.552;13.424;2022-08-21T03:42:52;11.05;;;8.77;;
39918;SDS011;25589;51.552;13.424;2022-08-21T03:45:18;12.18;;;9.98;;
39918;SDS011;25589;51.552;13.424;2022-08-21T03:48:17;12.32;;;9.50;;
39918;SDS011;25589;51.552;13.424;2022-08-21T03:50:37;11.43;;;10.02;;
39918;SDS011;25589;51.552;13.424;2022-08-21T03:53:04;11.88;;;10.02;;
39918;SDS011;25589;51.552;13.424;2022-08-21T03:55:30;13.43;;;10.25;;
39918;SDS011;25589;51.552;13.424;2022-08-21T03:57:56;11.32;;;9.65;;
39918;SDS011;25589;51.552;13.424;2022-08-21T04:00:23;14.23;;;9.30;;
39918;SDS011;25589;51.552;13.424;2022-08-21T04:02:49;12.43;;;9.10;;
39918;SDS011;25589;51.552;13.424;2022-08-21T04:05:16;10.48;;;9.18;;
39918;SDS011;25589;51.552;13.424;2022-08-21T04:07:52;11.38;;;8.75;;
39918;SDS011;25589;51.552;13.424;2022-08-21T04:10:22;13.30;;;9.63;;
39918;SDS011;25589;51.552;13.424;2022-08-21T04:12:49;11.80;;;9.65;;
39918;SDS011;25589;51.552;13.424;2022-08-21T04:15:15;12.35;;;9.82;;
39918;SDS011;25589;51.552;13.424;2022-08-21T04:17:41;10.20;;;9.05;;
39918;SDS011;25589;51.552;13.424;2022-08-21T04:20:07;10.98;;;9.07;;
39918;SDS011;25589;51.552;13.424;2022-08-21T04:22:33;11.60;;;9.10;;
39918;SDS011;25589;51.552;13.424;2022-08-21T04:24:58;11.05;;;9.30;;
39918;SDS011;25589;51.552;13.424;2022-08-21T04:27:24;11.13;;;8.80;;
39918;SDS011;25589;51.552;13.424;2022-08-21T04:29:49;11.48;;;9.30;;
39918;SDS011;25589;51.552;13.424;2022-08-21T04:32:21;11.98;;;9.32;;
39918;SDS011;25589;51.552;13.424;2022-08-21T04:34:50;11.27;;;9.52;;
39918;SDS011;25589;51.552;13.424;2022-08-21T04:37:23;11.88;;;9.32;;
39918;SDS011;25589;51.552;13.424;2022-08-21T04:39:49;12.63;;;9.73;;
39918;SDS011;25589;51.552;13.424;2022-08-21T04:42:15;11.10;;;9.55;;
39918;SDS011;25589;51.552;13.424;2022-08-21T04:44:40;11.65;;;9.52;;
39918;SDS011;25589;51.552;13.424;2022-08-21T04:47:06;10.43;;;9.00;;
39918;SDS011;25589;51.552;13.424;2022-08-21T04:49:32;9.55;;;8.55;;
39918;SDS011;25589;51.552;13.424;2022-08-21T04:51:58;11.13;;;8.63;;
39918;SDS011;25589;51.552;13.424;2022-08-21T04:54:24;9.55;;;8.30;;
39918;SDS011;25589;51.552;13.424;2022-08-21T04:56:52;10.25;;;8.85;;
39918;SDS011;25589;51.552;13.424;2022-08-21T04:59:31;9.90;;;8.00;;
39918;SDS011;25589;51.552;13.424;2022-08-21T05:02:00;14.07;;;8.60;;
39918;SDS011;25589;51.552;13.424;2022-08-21T05:04:28;9.82;;;8.82;;
39918;SDS011;25589;51.552;13.424;2022-08-21T05:06:56;10.02;;;8.43;;
39918;SDS011;25589;51.552;13.424;2022-08-21T05:09:25;11.75;;;8.30;;
39918;SDS011;25589;51.552;13.424;2022-08-21T05:11:51;11.13;;;8.00;;
39918;SDS011;25589;51.552;13.424;2022-08-21T05:14:18;10.65;;;8.10;;
39918;SDS011;25589;51.552;13.424;2022-08-21T05:16:44;9.55;;;7.97;;
39918;SDS011;25589;51.552;13.424;2022-08-21T05:19:10;9.77;;;7.65;;
39918;SDS011;25589;51.552;13.424;2022-08-21T05:21:38;13.05;;;7.93;;
39918;SDS011;25589;51.552;13.424;2022-08-21T05:24:06;11.00;;;9.05;;
39918;SDS011;25589;51.552;13.424;2022-08-21T05:26:32;9.52;;;8.13;;
39918;SDS011;25589;51.552;13.424;2022-08-21T05:28:58;10.73;;;8.07;;
39918;SDS011;25589;51.552;13.424;2022-08-21T05:31:24;9.38;;;7.72;;
39918;SDS011;25589;51.552;13.424;2022-08-21T05:33:49;9.80;;;7.85;;
39918;SDS011;25589;51.552;13.424;2022-08-21T05:36:16;8.18;;;7.35;;
39918;SDS011;25589;51.552;13.424;2022-08-21T05:38:42;7.88;;;7.10;;
39918;SDS011;25589;51.552;13.424;2022-08-21T05:41:08;9.02;;;7.65;;
39918;SDS011;25589;51.552;13.424;2022-08-21T05:43:35;9.98;;;7.93;;
39918;SDS011;25589;51.552;13.424;2022-08-21T05:46:04;8.57;;;7.50;;
39918;SDS011;25589;51.552;13.424;2022-08-21T05:48:31;13.10;;;8.02;;
39918;SDS011;25589;51.552;13.424;2022-08-21T05:50:57;8.43;;;7.47;;
39918;SDS011;25589;51.552;13.424;2022-08-21T05:53:28;10.30;;;8.48;;
39918;SDS011;25589;51.552;13.424;2022-08-21T05:55:54;9.40;;;7.88;;
39918;SDS011;25589;51.552;13.424;2022-08-21T05:58:20;12.43;;;8.07;;
39918;SDS011;25589;51.552;13.424;2022-08-21T06:00:48;14.13;;;8.38;;
39918;SDS011;25589;51.552;13.424;2022-08-21T06:03:17;10.75;;;7.75;;
39918;SDS011;25589;51.552;13.424;2022-08-21T06:05:44;11.38;;;7.85;;
39918;SDS011;25589;51.552;13.424;2022-08-21T06:08:10;12.27;;;8.07;;
39918;SDS011;25589;51.552;13.424;2022-08-21T06:10:36;9.77;;;7.90;;
39918;SDS011;25589;51.552;13.424;2022-08-21T06:13:02;11.20;;;8.38;;
39918;SDS011;25589;51.552;13.424;2022-08-21T06:15:27;10.15;;;7.72;;
39918;SDS011;25589;51.552;13.424;2022-08-21T06:17:53;8.70;;;7.45;;
39918;SDS011;25589;51.552;13.424;2022-08-21T06:20:19;9.52;;;7.63;;
39918;SDS011;25589;51.552;13.424;2022-08-21T06:22:46;12.38;;;8.13;;
39918;SDS011;25589;51.552;13.424;2022-08-21T06:25:11;10.93;;;7.80;;
39918;SDS011;25589;51.552;13.424;2022-08-21T06:27:37;12.68;;;7.85;;
39918;SDS011;25589;51.552;13.424;2022-08-21T06:30:04;11.05;;;7.75;;
39918;SDS011;25589;51.552;13.424;2022-08-21T06:32:31;8.68;;;7.53;;
39918;SDS011;25589;51.552;13.424;2022-08-21T06:34:56;10.70;;;7.90;;
39918;SDS011;25589;51.552;13.424;2022-08-21T06:37:22;8.15;;;6.53;;
39918;SDS011;25589;51.552;13.424;2022-08-21T06:39:47;8.95;;;7.15;;
39918;SDS011;25589;51.552;13.424;2022-08-21T06:42:14;7.50;;;6.63;;
39918;SDS011;25589;51.552;13.424;2022-08-21T06:44:40;8.48;;;6.20;;
39918;SDS011;25589;51.552;13.424;2022-08-21T06:47:06;10.02;;;6.40;;
39918;SDS011;25589;51.552;13.424;2022-08-21T06:49:32;9.75;;;7.07;;
39918;SDS011;25589;51.552;13.424;2022-08-21T06:51:57;9.98;;;6.88;;
39918;SDS011;25589;51.552;13.424;2022-08-21T06:54:23;8.80;;;5.70;;
39918;SDS011;25589;51.552;13.424;2022-08-21T06:56:48;8.35;;;6.22;;
39918;SDS011;25589;51.552;13.424;2022-08-21T06:59:14;7.47;;;5.55;;
39918;SDS011;25589;51.552;13.424;2022-08-21T07:01:40;8.27;;;5.80;;
39918;SDS011;25589;51.552;13.424;2022-08-21T07:04:06;8.10;;;5.55;;
39918;SDS011;25589;51.552;13.424;2022-08-21T07:06:32;8.15;;;5.25;;
39918;SDS011;25589;51.552;13.424;2022-08-21T07:08:58;10.02;;;5.85;;
39918;SDS011;25589;51.552;13.424;2022-08-21T07:11:23;8.60;;;4.90;;
39918;SDS011;25589;51.552;13.424;2022-08-21T07:13:50;8.95;;;4.80;;
39918;SDS011;25589;51.552;13.424;2022-08-21T07:16:17;6.93;;;4.65;;
39918;SDS011;25589;51.552;13.424;2022-08-21T07:18:43;6.72;;;4.57;;
39918;SDS011;25589;51.552;13.424;2022-08-21T07:21:09;7.85;;;4.90;;
39918;SDS011;25589;51.552;13.424;2022-08-21T07:23:42;7.28;;;4.90;;
39918;SDS011;25589;51.552;13.424;2022-08-21T07:26:15;8.05;;;5.45;;
39918;SDS011;25589;51.552;13.424;2022-08-21T07:28:43;8.65;;;4.60;;
39918;SDS011;25589;51.552;13.424;2022-08-21T07:31:08;8.00;;;4.60;;
39918;SDS011;25589;51.552;13.424;2022-08-21T07:33:35;7.28;;;4.40;;
39918;SDS011;25589;51.552;13.424;2022-08-21T07:36:01;15.18;;;4.60;;
39918;SDS011;25589;51.552;13.424;2022-08-21T07:38:27;7.45;;;5.10;;
39918;SDS011;25589;51.552;13.424;2022-08-21T07:40:54;6.40;;;4.03;;
39918;SDS011;25589;51.552;13.424;2022-08-21T07:43:21;7.63;;;4.25;;
39918;SDS011;25589;51.552;13.424;2022-08-21T07:45:47;12.00;;;3.67;;
39918;SDS011;25589;51.552;13.424;2022-08-21T07:48:14;6.28;;;3.42;;
39918;SDS011;25589;51.552;13.424;2022-08-21T07:50:40;12.88;;;5.93;;
39918;SDS011;25589;51.552;13.424;2022-08-21T07:53:06;6.55;;;4.93;;
39918;SDS011;25589;51.552;13.424;2022-08-21T07:55:32;7.63;;;3.40;;
39918;SDS011;25589;51.552;13.424;2022-08-21T07:57:58;8.45;;;3.50;;
39918;SDS011;25589;51.552;13.424;2022-08-21T08:00:25;7.13;;;3.70;;
39918;SDS011;25589;51.552;13.424;2022-08-21T08:02:52;6.70;;;2.60;;
39918;SDS011;25589;51.552;13.424;2022-08-21T08:05:21;7.88;;;3.20;;
39918;SDS011;25589;51.552;13.424;2022-08-21T08:07:48;5.30;;;2.90;;
39918;SDS011;25589;51.552;13.424;2022-08-21T08:10:14;7.28;;;3.42;;
39918;SDS011;25589;51.552;13.424;2022-08-21T08:12:41;8.90;;;2.95;;
39918;SDS011;25589;51.552;13.424;2022-08-21T08:15:09;6.75;;;2.60;;
39918;SDS011;25589;51.552;13.424;2022-08-21T08:17:37;5.60;;;2.33;;
39918;SDS011;25589;51.552;13.424;2022-08-21T08:20:04;3.47;;;2.00;;
39918;SDS011;25589;51.552;13.424;2022-08-21T08:22:30;6.15;;;2.50;;
39918;SDS011;25589;51.552;13.424;2022-08-21T08:24:56;8.75;;;1.98;;
39918;SDS011;25589;51.552;13.424;2022-08-21T08:27:21;4.68;;;1.90;;
39918;SDS011;25589;51.552;13.424;2022-08-21T08:29:47;5.63;;;2.22;;
39918;SDS011;25589;51.552;13.424;2022-08-21T08:32:13;5.22;;;2.60;;
39918;SDS011;25589;51.552;13.424;2022-08-21T08:34:39;3.92;;;1.33;;
39918;SDS011;25589;51.552;13.424;2022-08-21T08:37:05;6.60;;;2.35;;
39918;SDS011;25589;51.552;13.424;2022-08-21T08:39:32;5.85;;;1.83;;
39918;SDS011;25589;51.552;13.424;2022-08-21T08:44:39;3.60;;;1.40;;
39918;SDS011;25589;51.552;13.424;2022-08-21T08:47:06;4.38;;;1.45;;
39918;SDS011;25589;51.552;13.424;2022-08-21T08:50:26;4.75;;;1.60;;
39918;SDS011;25589;51.552;13.424;2022-08-21T08:52:36;6.65;;;1.63;;
39918;SDS011;25589;51.552;13.424;2022-08-21T08:55:09;3.50;;;1.27;;
39918;SDS011;25589;51.552;13.424;2022-08-21T08:57:45;3.20;;;1.50;;
39918;SDS011;25589;51.552;13.424;2022-08-21T09:00:13;3.55;;;1.50;;
39918;SDS011;25589;51.552;13.424;2022-08-21T09:02:41;4.53;;;1.88;;
39918;SDS011;25589;51.552;13.424;2022-08-21T09:05:20;3.42;;;1.27;;
39918;SDS011;25589;51.552;13.424;2022-08-21T09:10:55;4.68;;;1.30;;
39918;SDS011;25589;51.552;13.424;2022-08-21T09:16:24;2.88;;;1.40;;
39918;SDS011;25589;51.552;13.424;2022-08-21T09:19:17;4.15;;;1.63;;
39918;SDS011;25589;51.552;13.424;2022-08-21T09:24:33;5.65;;;1.60;;
39918;SDS011;25589;51.552;13.424;2022-08-21T09:29:40;4.63;;;1.63;;
39918;SDS011;25589;51.552;13.424;2022-08-21T09:32:16;5.18;;;1.40;;
39918;SDS011;25589;51.552;13.424;2022-08-21T09:34:54;4.40;;;1.23;;
39918;SDS011;25589;51.552;13.424;2022-08-21T09:37:23;3.17;;;1.30;;
39918;SDS011;25589;51.552;13.424;2022-08-21T09:39:49;2.25;;;1.27;;
39918;SDS011;25589;51.552;13.424;2022-08-21T09:42:21;7.03;;;2.00;;
39918;SDS011;25589;51.552;13.424;2022-08-21T09:45:00;4.72;;;1.55;;
39918;SDS011;25589;51.552;13.424;2022-08-21T09:47:35;4.68;;;1.13;;
39918;SDS011;25589;51.552;13.424;2022-08-21T09:50:09;3.65;;;1.52;;
39918;SDS011;25589;51.552;13.424;2022-08-21T09:52:49;5.03;;;1.60;;
39918;SDS011;25589;51.552;13.424;2022-08-21T09:55:24;8.48;;;2.88;;
39918;SDS011;25589;51.552;13.424;2022-08-21T09:58:16;2.72;;;1.52;;
39918;SDS011;25589;51.552;13.424;2022-08-21T10:00:43;7.68;;;2.33;;
39918;SDS011;25589;51.552;13.424;2022-08-21T10:03:17;6.35;;;1.40;;
39918;SDS011;25589;51.552;13.424;2022-08-21T10:08:24;5.55;;;1.30;;
39918;SDS011;25589;51.552;13.424;2022-08-21T10:10:56;3.70;;;1.48;;
39918;SDS011;25589;51.552;13.424;2022-08-21T10:16:12;5.25;;;1.83;;
39918;SDS011;25589;51.552;13.424;2022-08-21T10:33:05;2.80;;;1.27;;
39918;SDS011;25589;51.552;13.424;2022-08-21T10:41:32;2.00;;;1.05;;
39918;SDS011;25589;51.552;13.424;2022-08-21T10:47:27;4.15;;;1.05;;
39918;SDS011;25589;51.552;13.424;2022-08-21T10:55:56;2.63;;;1.23;;
39918;SDS011;25589;51.552;13.424;2022-08-21T11:01:17;4.00;;;1.85;;
39918;SDS011;25589;51.552;13.424;2022-08-21T11:04:12;5.75;;;1.90;;
39918;SDS011;25589;51.552;13.424;2022-08-21T11:06:39;3.45;;;1.35;;
39918;SDS011;25589;51.552;13.424;2022-08-21T11:09:13;3.40;;;1.15;;
39918;SDS011;25589;51.552;13.424;2022-08-21T11:12:03;5.47;;;1.38;;
39918;SDS011;25589;51.552;13.424;2022-08-21T11:14:40;2.83;;;1.30;;
39918;SDS011;25589;51.552;13.424;2022-08-21T11:17:45;1.85;;;0.75;;
39918;SDS011;25589;51.552;13.424;2022-08-21T11:20:28;5.22;;;1.50;;
39918;SDS011;25589;51.552;13.424;2022-08-21T11:23:17;1.30;;;0.82;;
39918;SDS011;25589;51.552;13.424;2022-08-21T11:26:00;4.13;;;1.40;;
39918;SDS011;25589;51.552;13.424;2022-08-21T11:34:18;4.53;;;1.23;;
39918;SDS011;25589;51.552;13.424;2022-08-21T11:40:34;5.63;;;1.70;;
39918;SDS011;25589;51.552;13.424;2022-08-21T11:43:35;3.03;;;1.30;;
39918;SDS011;25589;51.552;13.424;2022-08-21T11:48:53;1.90;;;1.15;;
39918;SDS011;25589;51.552;13.424;2022-08-21T11:52:38;1.27;;;0.93;;
39918;SDS011;25589;51.552;13.424;2022-08-21T11:57:31;2.80;;;1.20;;
39918;SDS011;25589;51.552;13.424;2022-08-21T12:02:51;1.25;;;0.98;;
39918;SDS011;25589;51.552;13.424;2022-08-21T12:05:39;1.60;;;1.20;;
39918;SDS011;25589;51.552;13.424;2022-08-21T12:08:14;2.13;;;1.25;;
39918;SDS011;25589;51.552;13.424;2022-08-21T12:11:04;4.25;;;1.55;;
39918;SDS011;25589;51.552;13.424;2022-08-21T12:13:31;2.50;;;1.15;;
39918;SDS011;25589;51.552;13.424;2022-08-21T12:16:06;4.15;;;1.65;;
39918;SDS011;25589;51.552;13.424;2022-08-21T12:18:33;2.92;;;1.45;;
39918;SDS011;25589;51.552;13.424;2022-08-21T12:21:04;3.58;;;1.42;;
39918;SDS011;25589;51.552;13.424;2022-08-21T12:23:48;2.92;;;1.10;;
39918;SDS011;25589;51.552;13.424;2022-08-21T12:29:16;2.38;;;1.08;;
39918;SDS011;25589;51.552;13.424;2022-08-21T12:31:48;3.28;;;1.30;;
39918;SDS011;25589;51.552;13.424;2022-08-21T12:34:16;2.80;;;1.23;;
39918;SDS011;25589;51.552;13.424;2022-08-21T12:37:03;2.53;;;1.40;;
39918;SDS011;25589;51.552;13.424;2022-08-21T12:39:38;3.47;;;0.95;;
39918;SDS011;25589;51.552;13.424;2022-08-21T12:42:18;4.55;;;1.08;;
39918;SDS011;25589;51.552;13.424;2022-08-21T12:52:33;3.90;;;1.25;;
39918;SDS011;25589;51.552;13.424;2022-08-21T12:55:06;6.20;;;1.20;;
39918;SDS011;25589;51.552;13.424;2022-08-21T12:57:36;1.33;;;0.80;;
39918;SDS011;25589;51.552;13.424;2022-08-21T13:00:05;3.05;;;1.33;;
39918;SDS011;25589;51.552;13.424;2022-08-21T13:05:08;2.03;;;1.08;;
39918;SDS011;25589;51.552;13.424;2022-08-21T13:07:42;1.33;;;1.10;;
39918;SDS011;25589;51.552;13.424;2022-08-21T13:10:18;4.45;;;1.33;;
39918;SDS011;25589;51.552;13.424;2022-08-21T13:12:44;1.50;;;1.10;;
39918;SDS011;25589;51.552;13.424;2022-08-21T13:15:15;1.27;;;1.10;;
39918;SDS011;25589;51.552;13.424;2022-08-21T13:17:53;4.50;;;1.30;;
39918;SDS011;25589;51.552;13.424;2022-08-21T13:20:23;4.00;;;1.63;;
39918;SDS011;25589;51.552;13.424;2022-08-21T13:22:52;3.83;;;1.50;;
39918;SDS011;25589;51.552;13.424;2022-08-21T13:25:19;4.13;;;1.65;;
39918;SDS011;25589;51.552;13.424;2022-08-21T13:27:57;4.57;;;1.48;;
39918;SDS011;25589;51.552;13.424;2022-08-21T13:30:41;2.97;;;1.40;;
39918;SDS011;25589;51.552;13.424;2022-08-21T13:33:09;4.97;;;1.45;;
39918;SDS011;25589;51.552;13.424;2022-08-21T13:35:48;2.17;;;1.10;;
39918;SDS011;25589;51.552;13.424;2022-08-21T13:40:51;5.47;;;1.48;;
39918;SDS011;25589;51.552;13.424;2022-08-21T13:43:22;1.98;;;1.50;;
39918;SDS011;25589;51.552;13.424;2022-08-21T13:45:54;3.70;;;1.30;;
39918;SDS011;25589;51.552;13.424;2022-08-21T13:48:24;5.18;;;1.42;;
39918;SDS011;25589;51.552;13.424;2022-08-21T13:50:52;3.70;;;1.45;;
39918;SDS011;25589;51.552;13.424;2022-08-21T13:53:23;2.70;;;1.40;;
39918;SDS011;25589;51.552;13.424;2022-08-21T13:56:00;2.30;;;1.33;;
39918;SDS011;25589;51.552;13.424;2022-08-21T13:58:31;5.45;;;1.55;;
39918;SDS011;25589;51.552;13.424;2022-08-21T14:01:15;6.00;;;1.67;;
39918;SDS011;25589;51.552;13.424;2022-08-21T14:03:44;8.27;;;1.52;;
39918;SDS011;25589;51.552;13.424;2022-08-21T14:06:12;4.15;;;1.27;;
39918;SDS011;25589;51.552;13.424;2022-08-21T14:08:46;3.20;;;1.63;;
39918;SDS011;25589;51.552;13.424;2022-08-21T14:11:15;3.17;;;1.30;;
39918;SDS011;25589;51.552;13.424;2022-08-21T14:13:46;4.13;;;1.67;;
39918;SDS011;25589;51.552;13.424;2022-08-21T14:16:19;4.90;;;1.63;;
39918;SDS011;25589;51.552;13.424;2022-08-21T14:19:09;3.80;;;1.50;;
39918;SDS011;25589;51.552;13.424;2022-08-21T14:21:43;2.97;;;1.42;;
39918;SDS011;25589;51.552;13.424;2022-08-21T14:24:13;3.70;;;1.38;;
39918;SDS011;25589;51.552;13.424;2022-08-21T14:27:03;3.20;;;1.40;;
39918;SDS011;25589;51.552;13.424;2022-08-21T14:29:32;3.38;;;1.85;;
39918;SDS011;25589;51.552;13.424;2022-08-21T14:32:07;4.20;;;1.60;;
39918;SDS011;25589;51.552;13.424;2022-08-21T14:34:37;5.03;;;1.70;;
39918;SDS011;25589;51.552;13.424;2022-08-21T14:37:03;4.10;;;1.75;;
39918;SDS011;25589;51.552;13.424;2022-08-21T14:39:28;3.10;;;1.30;;
39918;SDS011;25589;51.552;13.424;2022-08-21T14:41:54;4.97;;;1.65;;
39918;SDS011;25589;51.552;13.424;2022-08-21T14:44:20;2.70;;;1.60;;
39918;SDS011;25589;51.552;13.424;2022-08-21T14:46:45;4.68;;;1.80;;
39918;SDS011;25589;51.552;13.424;2022-08-21T14:49:11;5.97;;;1.77;;
39918;SDS011;25589;51.552;13.424;2022-08-21T14:51:37;4.43;;;1.48;;
39918;SDS011;25589;51.552;13.424;2022-08-21T14:54:04;2.65;;;1.25;;
39918;SDS011;25589;51.552;13.424;2022-08-21T14:56:30;2.55;;;1.50;;
39918;SDS011;25589;51.552;13.424;2022-08-21T14:58:58;4.32;;;1.80;;
39918;SDS011;25589;51.552;13.424;2022-08-21T15:01:29;3.38;;;1.40;;
39918;SDS011;25589;51.552;13.424;2022-08-21T15:03:55;3.67;;;1.25;;
39918;SDS011;25589;51.552;13.424;2022-08-21T15:06:21;3.95;;;1.60;;
39918;SDS011;25589;51.552;13.424;2022-08-21T15:08:47;3.70;;;1.27;;
39918;SDS011;25589;51.552;13.424;2022-08-21T15:11:18;4.15;;;1.75;;
39918;SDS011;25589;51.552;13.424;2022-08-21T15:16:12;4.35;;;1.70;;
39918;SDS011;25589;51.552;13.424;2022-08-21T15:18:38;5.65;;;1.52;;
39918;SDS011;25589;51.552;13.424;2022-08-21T15:21:04;4.25;;;1.40;;
39918;SDS011;25589;51.552;13.424;2022-08-21T15:23:29;4.85;;;1.42;;
39918;SDS011;25589;51.552;13.424;2022-08-21T15:25:55;4.93;;;1.70;;
39918;SDS011;25589;51.552;13.424;2022-08-21T15:28:22;2.92;;;1.35;;
39918;SDS011;25589;51.552;13.424;2022-08-21T15:30:50;5.18;;;1.35;;
39918;SDS011;25589;51.552;13.424;2022-08-21T15:33:15;3.58;;;1.52;;
39918;SDS011;25589;51.552;13.424;2022-08-21T15:35:42;3.88;;;1.52;;
39918;SDS011;25589;51.552;13.424;2022-08-21T15:38:07;4.10;;;1.55;;
39918;SDS011;25589;51.552;13.424;2022-08-21T15:40:33;3.25;;;1.27;;
39918;SDS011;25589;51.552;13.424;2022-08-21T15:43:01;5.20;;;1.70;;
39918;SDS011;25589;51.552;13.424;2022-08-21T15:45:28;4.57;;;1.77;;
39918;SDS011;25589;51.552;13.424;2022-08-21T15:47:54;5.88;;;1.73;;
39918;SDS011;25589;51.552;13.424;2022-08-21T15:50:21;4.30;;;1.42;;
39918;SDS011;25589;51.552;13.424;2022-08-21T15:52:48;4.57;;;1.48;;
39918;SDS011;25589;51.552;13.424;2022-08-21T15:55:14;2.83;;;1.38;;
39918;SDS011;25589;51.552;13.424;2022-08-21T15:57:44;3.92;;;1.50;;
39918;SDS011;25589;51.552;13.424;2022-08-21T16:00:13;4.32;;;1.73;;
39918;SDS011;25589;51.552;13.424;2022-08-21T16:02:43;5.13;;;1.50;;
39918;SDS011;25589;51.552;13.424;2022-08-21T16:05:11;8.52;;;1.63;;